sensor_id;sensor_type;location;lat;lon;timestamp;P1;durP1;ratioP1;P2;durP2;ratioP2
26756;SDS011;23848;49.798;10.228;2024-01-11T00:00:46;23.25;;;10.27;;
26756;SDS011;23848;49.798;10.228;2024-01-11T00:03:14;25.55;;;11.77;;
26756;SDS011;23848;49.798;10.228;2024-01-11T00:05:43;21.08;;;10.98;;
26756;SDS011;23848;49.798;10.228;2024-01-11T00:08:11;19.73;;;10.38;;
26756;SDS011;23848;49.798;10.228;2024-01-11T00:10:40;21.00;;;9.90;;
26756;SDS011;23848;49.798;10.228;2024-01-11T00:13:08;18.63;;;9.73;;
26756;SDS011;23848;49.798;10.228;2024-01-11T00:15:38;21.02;;;10.77;;
26756;SDS011;23848;49.798;10.228;2024-01-11T00:18:06;19.38;;;10.70;;
26756;SDS011;23848;49.798;10.228;2024-01-11T00:20:36;24.42;;;11.20;;
26756;SDS011;23848;49.798;10.228;2024-01-11T00:23:04;22.08;;;11.00;;
26756;SDS011;23848;49.798;10.228;2024-01-11T00:25:33;19.77;;;10.48;;
26756;SDS011;23848;49.798;10.228;2024-01-11T00:28:01;18.98;;;10.00;;
26756;SDS011;23848;49.798;10.228;2024-01-11T00:30:30;18.75;;;10.27;;
26756;SDS011;23848;49.798;10.228;2024-01-11T00:33:01;15.38;;;9.13;;
26756;SDS011;23848;49.798;10.228;2024-01-11T00:35:30;16.63;;;9.15;;
26756;SDS011;23848;49.798;10.228;2024-01-11T00:37:58;21.05;;;10.10;;
26756;SDS011;23848;49.798;10.228;2024-01-11T00:40:27;18.50;;;9.57;;
26756;SDS011;23848;49.798;10.228;2024-01-11T00:42:56;16.27;;;8.20;;
26756;SDS011;23848;49.798;10.228;2024-01-11T00:45:24;19.25;;;10.00;;
26756;SDS011;23848;49.798;10.228;2024-01-11T00:47:53;17.83;;;9.20;;
26756;SDS011;23848;49.798;10.228;2024-01-11T00:50:25;21.60;;;10.00;;
26756;SDS011;23848;49.798;10.228;2024-01-11T00:52:54;18.40;;;10.05;;
26756;SDS011;23848;49.798;10.228;2024-01-11T00:55:22;19.05;;;9.05;;
26756;SDS011;23848;49.798;10.228;2024-01-11T00:57:54;18.17;;;9.45;;
26756;SDS011;23848;49.798;10.228;2024-01-11T01:00:22;18.67;;;10.00;;
26756;SDS011;23848;49.798;10.228;2024-01-11T01:02:51;20.77;;;10.60;;
26756;SDS011;23848;49.798;10.228;2024-01-11T01:09:03;19.63;;;9.02;;
26756;SDS011;23848;49.798;10.228;2024-01-11T01:11:31;22.60;;;9.45;;
26756;SDS011;23848;49.798;10.228;2024-01-11T01:14:00;17.70;;;9.75;;
26756;SDS011;23848;49.798;10.228;2024-01-11T01:16:28;18.70;;;10.07;;
26756;SDS011;23848;49.798;10.228;2024-01-11T01:18:56;23.17;;;10.50;;
26756;SDS011;23848;49.798;10.228;2024-01-11T01:21:25;21.25;;;11.68;;
26756;SDS011;23848;49.798;10.228;2024-01-11T01:23:54;18.17;;;9.38;;
26756;SDS011;23848;49.798;10.228;2024-01-11T01:26:24;18.10;;;9.55;;
26756;SDS011;23848;49.798;10.228;2024-01-11T01:28:52;17.40;;;9.55;;
26756;SDS011;23848;49.798;10.228;2024-01-11T01:31:22;23.63;;;10.45;;
26756;SDS011;23848;49.798;10.228;2024-01-11T01:33:50;17.63;;;9.48;;
26756;SDS011;23848;49.798;10.228;2024-01-11T01:36:19;22.95;;;10.23;;
26756;SDS011;23848;49.798;10.228;2024-01-11T01:38:48;20.08;;;10.40;;
26756;SDS011;23848;49.798;10.228;2024-01-11T01:41:17;22.33;;;9.57;;
26756;SDS011;23848;49.798;10.228;2024-01-11T01:43:46;22.92;;;11.13;;
26756;SDS011;23848;49.798;10.228;2024-01-11T01:46:15;22.98;;;10.00;;
26756;SDS011;23848;49.798;10.228;2024-01-11T01:48:47;24.55;;;10.50;;
26756;SDS011;23848;49.798;10.228;2024-01-11T01:51:15;20.27;;;11.50;;
26756;SDS011;23848;49.798;10.228;2024-01-11T01:53:44;22.00;;;10.00;;
26756;SDS011;23848;49.798;10.228;2024-01-11T01:56:12;16.88;;;9.65;;
26756;SDS011;23848;49.798;10.228;2024-01-11T01:58:41;23.65;;;11.30;;
26756;SDS011;23848;49.798;10.228;2024-01-11T02:01:11;21.73;;;11.95;;
26756;SDS011;23848;49.798;10.228;2024-01-11T02:03:43;19.00;;;10.47;;
26756;SDS011;23848;49.798;10.228;2024-01-11T02:06:11;25.73;;;10.55;;
26756;SDS011;23848;49.798;10.228;2024-01-11T02:08:41;24.67;;;11.43;;
26756;SDS011;23848;49.798;10.228;2024-01-11T02:11:11;20.02;;;9.52;;
26756;SDS011;23848;49.798;10.228;2024-01-11T02:13:39;21.40;;;9.90;;
26756;SDS011;23848;49.798;10.228;2024-01-11T02:16:08;17.75;;;10.82;;
26756;SDS011;23848;49.798;10.228;2024-01-11T02:18:38;17.77;;;9.18;;
26756;SDS011;23848;49.798;10.228;2024-01-11T02:21:07;21.48;;;9.80;;
26756;SDS011;23848;49.798;10.228;2024-01-11T02:23:39;15.73;;;9.32;;
26756;SDS011;23848;49.798;10.228;2024-01-11T02:26:13;18.92;;;9.98;;
26756;SDS011;23848;49.798;10.228;2024-01-11T02:28:43;18.77;;;9.45;;
26756;SDS011;23848;49.798;10.228;2024-01-11T02:31:12;19.15;;;8.85;;
26756;SDS011;23848;49.798;10.228;2024-01-11T02:33:41;21.40;;;9.73;;
26756;SDS011;23848;49.798;10.228;2024-01-11T02:36:10;19.48;;;10.10;;
26756;SDS011;23848;49.798;10.228;2024-01-11T02:38:38;19.25;;;10.00;;
26756;SDS011;23848;49.798;10.228;2024-01-11T02:41:09;24.70;;;11.27;;
26756;SDS011;23848;49.798;10.228;2024-01-11T02:43:39;21.05;;;10.88;;
26756;SDS011;23848;49.798;10.228;2024-01-11T02:46:07;19.85;;;10.45;;
26756;SDS011;23848;49.798;10.228;2024-01-11T02:48:36;27.00;;;12.50;;
26756;SDS011;23848;49.798;10.228;2024-01-11T02:51:06;23.13;;;11.27;;
26756;SDS011;23848;49.798;10.228;2024-01-11T02:53:35;27.45;;;12.95;;
26756;SDS011;23848;49.798;10.228;2024-01-11T02:56:03;31.48;;;14.80;;
26756;SDS011;23848;49.798;10.228;2024-01-11T02:58:32;44.55;;;15.02;;
26756;SDS011;23848;49.798;10.228;2024-01-11T03:01:02;22.42;;;13.20;;
26756;SDS011;23848;49.798;10.228;2024-01-11T03:03:30;29.35;;;14.02;;
26756;SDS011;23848;49.798;10.228;2024-01-11T03:05:59;29.45;;;12.88;;
26756;SDS011;23848;49.798;10.228;2024-01-11T03:08:27;25.20;;;12.20;;
26756;SDS011;23848;49.798;10.228;2024-01-11T03:10:56;19.13;;;10.93;;
26756;SDS011;23848;49.798;10.228;2024-01-11T03:13:24;26.38;;;11.93;;
26756;SDS011;23848;49.798;10.228;2024-01-11T03:15:53;27.70;;;11.30;;
26756;SDS011;23848;49.798;10.228;2024-01-11T03:18:22;22.40;;;10.15;;
26756;SDS011;23848;49.798;10.228;2024-01-11T03:20:51;23.40;;;10.90;;
26756;SDS011;23848;49.798;10.228;2024-01-11T03:23:20;22.00;;;10.25;;
26756;SDS011;23848;49.798;10.228;2024-01-11T03:25:48;19.65;;;10.10;;
26756;SDS011;23848;49.798;10.228;2024-01-11T03:28:17;19.15;;;9.63;;
26756;SDS011;23848;49.798;10.228;2024-01-11T03:30:45;19.80;;;9.15;;
26756;SDS011;23848;49.798;10.228;2024-01-11T03:33:13;20.67;;;10.23;;
26756;SDS011;23848;49.798;10.228;2024-01-11T03:35:44;18.73;;;9.75;;
26756;SDS011;23848;49.798;10.228;2024-01-11T03:38:12;16.95;;;9.40;;
26756;SDS011;23848;49.798;10.228;2024-01-11T03:40:40;19.48;;;8.75;;
26756;SDS011;23848;49.798;10.228;2024-01-11T03:43:09;19.38;;;10.23;;
26756;SDS011;23848;49.798;10.228;2024-01-11T03:45:37;18.85;;;8.35;;
26756;SDS011;23848;49.798;10.228;2024-01-11T03:48:05;19.48;;;9.05;;
26756;SDS011;23848;49.798;10.228;2024-01-11T03:50:34;18.25;;;9.07;;
26756;SDS011;23848;49.798;10.228;2024-01-11T03:53:04;19.77;;;10.65;;
26756;SDS011;23848;49.798;10.228;2024-01-11T03:55:32;21.25;;;10.02;;
26756;SDS011;23848;49.798;10.228;2024-01-11T03:58:00;20.25;;;10.13;;
26756;SDS011;23848;49.798;10.228;2024-01-11T04:00:29;17.15;;;9.95;;
26756;SDS011;23848;49.798;10.228;2024-01-11T04:02:59;22.33;;;10.55;;
26756;SDS011;23848;49.798;10.228;2024-01-11T04:05:28;19.15;;;10.35;;
26756;SDS011;23848;49.798;10.228;2024-01-11T04:07:58;16.92;;;8.50;;
26756;SDS011;23848;49.798;10.228;2024-01-11T04:10:28;18.45;;;10.05;;
26756;SDS011;23848;49.798;10.228;2024-01-11T04:12:56;20.23;;;10.35;;
26756;SDS011;23848;49.798;10.228;2024-01-11T04:15:24;21.05;;;10.75;;
26756;SDS011;23848;49.798;10.228;2024-01-11T04:17:53;19.23;;;8.82;;
26756;SDS011;23848;49.798;10.228;2024-01-11T04:20:21;14.93;;;8.40;;
26756;SDS011;23848;49.798;10.228;2024-01-11T04:22:50;25.67;;;11.60;;
26756;SDS011;23848;49.798;10.228;2024-01-11T04:25:19;29.38;;;12.13;;
26756;SDS011;23848;49.798;10.228;2024-01-11T04:27:49;28.10;;;14.57;;
26756;SDS011;23848;49.798;10.228;2024-01-11T04:30:18;29.10;;;14.57;;
26756;SDS011;23848;49.798;10.228;2024-01-11T04:32:46;27.48;;;13.55;;
26756;SDS011;23848;49.798;10.228;2024-01-11T04:35:15;21.88;;;12.75;;
26756;SDS011;23848;49.798;10.228;2024-01-11T04:37:43;26.48;;;14.73;;
26756;SDS011;23848;49.798;10.228;2024-01-11T04:40:11;24.85;;;12.13;;
26756;SDS011;23848;49.798;10.228;2024-01-11T04:42:40;26.20;;;12.15;;
26756;SDS011;23848;49.798;10.228;2024-01-11T04:45:09;22.35;;;12.80;;
26756;SDS011;23848;49.798;10.228;2024-01-11T04:47:38;28.92;;;13.10;;
26756;SDS011;23848;49.798;10.228;2024-01-11T04:50:07;26.63;;;12.63;;
26756;SDS011;23848;49.798;10.228;2024-01-11T04:52:36;23.27;;;12.18;;
26756;SDS011;23848;49.798;10.228;2024-01-11T04:55:05;22.35;;;11.40;;
26756;SDS011;23848;49.798;10.228;2024-01-11T04:57:33;21.42;;;10.15;;
26756;SDS011;23848;49.798;10.228;2024-01-11T05:00:01;25.27;;;12.23;;
26756;SDS011;23848;49.798;10.228;2024-01-11T05:02:32;23.80;;;13.38;;
26756;SDS011;23848;49.798;10.228;2024-01-11T05:05:01;22.52;;;11.90;;
26756;SDS011;23848;49.798;10.228;2024-01-11T05:07:32;19.75;;;10.93;;
26756;SDS011;23848;49.798;10.228;2024-01-11T05:10:01;23.05;;;12.55;;
26756;SDS011;23848;49.798;10.228;2024-01-11T05:12:30;23.92;;;12.50;;
26756;SDS011;23848;49.798;10.228;2024-01-11T05:14:58;24.70;;;12.90;;
26756;SDS011;23848;49.798;10.228;2024-01-11T05:17:27;28.10;;;11.95;;
26756;SDS011;23848;49.798;10.228;2024-01-11T05:19:57;20.23;;;11.55;;
26756;SDS011;23848;49.798;10.228;2024-01-11T05:22:25;21.85;;;10.98;;
26756;SDS011;23848;49.798;10.228;2024-01-11T05:24:54;22.15;;;9.52;;
26756;SDS011;23848;49.798;10.228;2024-01-11T05:27:22;19.85;;;10.00;;
26756;SDS011;23848;49.798;10.228;2024-01-11T05:29:51;20.17;;;10.77;;
26756;SDS011;23848;49.798;10.228;2024-01-11T05:32:19;25.55;;;9.73;;
26756;SDS011;23848;49.798;10.228;2024-01-11T05:34:48;19.42;;;9.40;;
26756;SDS011;23848;49.798;10.228;2024-01-11T05:37:18;25.15;;;10.93;;
26756;SDS011;23848;49.798;10.228;2024-01-11T05:39:47;21.13;;;10.30;;
26756;SDS011;23848;49.798;10.228;2024-01-11T05:42:16;24.15;;;10.40;;
26756;SDS011;23848;49.798;10.228;2024-01-11T05:44:45;20.85;;;10.05;;
26756;SDS011;23848;49.798;10.228;2024-01-11T05:47:13;20.30;;;11.93;;
26756;SDS011;23848;49.798;10.228;2024-01-11T05:49:42;20.90;;;10.02;;
26756;SDS011;23848;49.798;10.228;2024-01-11T05:52:11;18.17;;;9.65;;
26756;SDS011;23848;49.798;10.228;2024-01-11T05:54:41;20.35;;;10.57;;
26756;SDS011;23848;49.798;10.228;2024-01-11T05:57:10;19.60;;;9.88;;
26756;SDS011;23848;49.798;10.228;2024-01-11T05:59:42;25.52;;;10.75;;
26756;SDS011;23848;49.798;10.228;2024-01-11T06:02:11;20.55;;;10.70;;
26756;SDS011;23848;49.798;10.228;2024-01-11T06:04:40;17.50;;;9.35;;
26756;SDS011;23848;49.798;10.228;2024-01-11T06:07:08;24.08;;;11.57;;
26756;SDS011;23848;49.798;10.228;2024-01-11T06:09:37;23.00;;;11.02;;
26756;SDS011;23848;49.798;10.228;2024-01-11T06:12:07;26.23;;;11.07;;
26756;SDS011;23848;49.798;10.228;2024-01-11T06:14:35;19.45;;;11.40;;
26756;SDS011;23848;49.798;10.228;2024-01-11T06:17:04;30.35;;;10.65;;
26756;SDS011;23848;49.798;10.228;2024-01-11T06:19:33;23.85;;;12.80;;
26756;SDS011;23848;49.798;10.228;2024-01-11T06:22:01;23.25;;;10.77;;
26756;SDS011;23848;49.798;10.228;2024-01-11T06:24:29;23.55;;;12.98;;
26756;SDS011;23848;49.798;10.228;2024-01-11T06:26:58;27.83;;;12.95;;
26756;SDS011;23848;49.798;10.228;2024-01-11T06:29:28;28.50;;;12.45;;
26756;SDS011;23848;49.798;10.228;2024-01-11T06:31:56;26.13;;;13.00;;
26756;SDS011;23848;49.798;10.228;2024-01-11T06:34:25;25.33;;;13.57;;
26756;SDS011;23848;49.798;10.228;2024-01-11T06:36:54;22.23;;;12.82;;
26756;SDS011;23848;49.798;10.228;2024-01-11T06:39:23;25.50;;;11.98;;
26756;SDS011;23848;49.798;10.228;2024-01-11T06:41:51;20.88;;;11.10;;
26756;SDS011;23848;49.798;10.228;2024-01-11T06:44:19;20.75;;;11.85;;
26756;SDS011;23848;49.798;10.228;2024-01-11T06:46:49;21.60;;;12.23;;
26756;SDS011;23848;49.798;10.228;2024-01-11T06:49:18;22.73;;;10.90;;
26756;SDS011;23848;49.798;10.228;2024-01-11T06:51:46;42.55;;;10.70;;
26756;SDS011;23848;49.798;10.228;2024-01-11T06:54:15;17.45;;;8.80;;
26756;SDS011;23848;49.798;10.228;2024-01-11T06:56:43;22.88;;;10.93;;
26756;SDS011;23848;49.798;10.228;2024-01-11T06:59:12;25.83;;;10.50;;
26756;SDS011;23848;49.798;10.228;2024-01-11T07:01:40;23.33;;;9.57;;
26756;SDS011;23848;49.798;10.228;2024-01-11T07:04:10;14.90;;;8.88;;
26756;SDS011;23848;49.798;10.228;2024-01-11T07:06:40;20.85;;;10.15;;
26756;SDS011;23848;49.798;10.228;2024-01-11T07:09:08;19.33;;;9.45;;
26756;SDS011;23848;49.798;10.228;2024-01-11T07:11:37;22.17;;;9.75;;
26756;SDS011;23848;49.798;10.228;2024-01-11T07:14:05;22.63;;;10.60;;
26756;SDS011;23848;49.798;10.228;2024-01-11T07:16:34;22.90;;;11.73;;
26756;SDS011;23848;49.798;10.228;2024-01-11T07:19:03;26.95;;;12.82;;
26756;SDS011;23848;49.798;10.228;2024-01-11T07:21:33;23.58;;;11.13;;
26756;SDS011;23848;49.798;10.228;2024-01-11T07:24:02;22.15;;;11.10;;
26756;SDS011;23848;49.798;10.228;2024-01-11T07:26:31;23.42;;;13.40;;
26756;SDS011;23848;49.798;10.228;2024-01-11T07:29:00;21.65;;;12.48;;
26756;SDS011;23848;49.798;10.228;2024-01-11T07:31:28;28.75;;;13.52;;
26756;SDS011;23848;49.798;10.228;2024-01-11T07:33:57;26.35;;;12.80;;
26756;SDS011;23848;49.798;10.228;2024-01-11T07:36:26;23.23;;;12.75;;
26756;SDS011;23848;49.798;10.228;2024-01-11T07:38:55;23.25;;;12.98;;
26756;SDS011;23848;49.798;10.228;2024-01-11T07:41:24;21.83;;;10.95;;
26756;SDS011;23848;49.798;10.228;2024-01-11T07:43:53;23.65;;;12.25;;
26756;SDS011;23848;49.798;10.228;2024-01-11T07:46:25;29.77;;;12.75;;
26756;SDS011;23848;49.798;10.228;2024-01-11T07:49:04;22.17;;;12.70;;
26756;SDS011;23848;49.798;10.228;2024-01-11T07:51:36;25.23;;;11.43;;
26756;SDS011;23848;49.798;10.228;2024-01-11T07:54:06;23.88;;;12.25;;
26756;SDS011;23848;49.798;10.228;2024-01-11T07:56:35;22.90;;;13.38;;
26756;SDS011;23848;49.798;10.228;2024-01-11T07:59:05;20.60;;;11.02;;
26756;SDS011;23848;49.798;10.228;2024-01-11T08:01:33;21.35;;;11.15;;
26756;SDS011;23848;49.798;10.228;2024-01-11T08:04:02;19.67;;;11.23;;
26756;SDS011;23848;49.798;10.228;2024-01-11T08:06:30;25.08;;;12.02;;
26756;SDS011;23848;49.798;10.228;2024-01-11T08:08:59;19.67;;;11.05;;
26756;SDS011;23848;49.798;10.228;2024-01-11T08:11:29;18.85;;;11.27;;
26756;SDS011;23848;49.798;10.228;2024-01-11T08:14:07;23.15;;;11.98;;
26756;SDS011;23848;49.798;10.228;2024-01-11T08:16:36;24.52;;;11.43;;
26756;SDS011;23848;49.798;10.228;2024-01-11T08:19:05;24.48;;;11.63;;
26756;SDS011;23848;49.798;10.228;2024-01-11T08:21:33;23.70;;;11.98;;
26756;SDS011;23848;49.798;10.228;2024-01-11T08:24:02;22.17;;;12.05;;
26756;SDS011;23848;49.798;10.228;2024-01-11T08:26:31;19.27;;;11.48;;
26756;SDS011;23848;49.798;10.228;2024-01-11T08:29:00;22.70;;;11.38;;
26756;SDS011;23848;49.798;10.228;2024-01-11T08:31:28;27.90;;;12.43;;
26756;SDS011;23848;49.798;10.228;2024-01-11T08:33:57;23.98;;;11.60;;
26756;SDS011;23848;49.798;10.228;2024-01-11T08:36:30;23.38;;;11.23;;
26756;SDS011;23848;49.798;10.228;2024-01-11T08:38:59;20.85;;;9.95;;
26756;SDS011;23848;49.798;10.228;2024-01-11T08:41:27;22.23;;;10.65;;
26756;SDS011;23848;49.798;10.228;2024-01-11T08:43:58;24.23;;;12.27;;
26756;SDS011;23848;49.798;10.228;2024-01-11T08:46:27;20.58;;;11.38;;
26756;SDS011;23848;49.798;10.228;2024-01-11T08:48:57;25.35;;;12.93;;
26756;SDS011;23848;49.798;10.228;2024-01-11T08:51:25;26.35;;;14.27;;
26756;SDS011;23848;49.798;10.228;2024-01-11T08:53:54;21.00;;;11.55;;
26756;SDS011;23848;49.798;10.228;2024-01-11T08:56:25;22.70;;;12.73;;
26756;SDS011;23848;49.798;10.228;2024-01-11T08:58:54;20.90;;;11.65;;
26756;SDS011;23848;49.798;10.228;2024-01-11T09:01:26;25.05;;;12.32;;
26756;SDS011;23848;49.798;10.228;2024-01-11T09:03:54;28.10;;;14.73;;
26756;SDS011;23848;49.798;10.228;2024-01-11T09:06:25;34.97;;;18.42;;
26756;SDS011;23848;49.798;10.228;2024-01-11T09:08:53;27.27;;;14.57;;
26756;SDS011;23848;49.798;10.228;2024-01-11T09:11:22;31.85;;;16.33;;
26756;SDS011;23848;49.798;10.228;2024-01-11T09:13:50;30.02;;;12.88;;
26756;SDS011;23848;49.798;10.228;2024-01-11T09:16:21;30.92;;;14.48;;
26756;SDS011;23848;49.798;10.228;2024-01-11T09:18:52;30.98;;;14.98;;
26756;SDS011;23848;49.798;10.228;2024-01-11T09:21:21;33.78;;;14.52;;
26756;SDS011;23848;49.798;10.228;2024-01-11T09:23:49;33.40;;;16.00;;
26756;SDS011;23848;49.798;10.228;2024-01-11T09:26:17;31.85;;;17.02;;
26756;SDS011;23848;49.798;10.228;2024-01-11T09:28:46;31.63;;;16.55;;
26756;SDS011;23848;49.798;10.228;2024-01-11T09:31:14;27.25;;;14.32;;
26756;SDS011;23848;49.798;10.228;2024-01-11T09:33:43;27.60;;;14.48;;
26756;SDS011;23848;49.798;10.228;2024-01-11T09:36:15;30.85;;;15.27;;
26756;SDS011;23848;49.798;10.228;2024-01-11T09:38:45;28.52;;;14.15;;
26756;SDS011;23848;49.798;10.228;2024-01-11T09:41:15;29.58;;;14.50;;
26756;SDS011;23848;49.798;10.228;2024-01-11T09:43:43;29.13;;;16.27;;
26756;SDS011;23848;49.798;10.228;2024-01-11T09:46:12;28.67;;;13.52;;
26756;SDS011;23848;49.798;10.228;2024-01-11T09:48:42;28.73;;;14.85;;
26756;SDS011;23848;49.798;10.228;2024-01-11T09:51:11;24.77;;;14.52;;
26756;SDS011;23848;49.798;10.228;2024-01-11T09:53:41;27.75;;;14.90;;
26756;SDS011;23848;49.798;10.228;2024-01-11T09:56:10;29.80;;;16.52;;
26756;SDS011;23848;49.798;10.228;2024-01-11T09:58:40;31.08;;;17.10;;
26756;SDS011;23848;49.798;10.228;2024-01-11T10:01:12;26.60;;;14.10;;
26756;SDS011;23848;49.798;10.228;2024-01-11T10:03:41;28.55;;;15.05;;
26756;SDS011;23848;49.798;10.228;2024-01-11T10:06:09;27.88;;;14.48;;
26756;SDS011;23848;49.798;10.228;2024-01-11T10:08:38;22.65;;;13.32;;
26756;SDS011;23848;49.798;10.228;2024-01-11T10:11:08;30.15;;;15.82;;
26756;SDS011;23848;49.798;10.228;2024-01-11T10:13:37;28.00;;;14.25;;
26756;SDS011;23848;49.798;10.228;2024-01-11T10:16:06;26.55;;;14.57;;
26756;SDS011;23848;49.798;10.228;2024-01-11T10:18:36;28.63;;;13.77;;
26756;SDS011;23848;49.798;10.228;2024-01-11T10:21:05;32.70;;;15.15;;
26756;SDS011;23848;49.798;10.228;2024-01-11T10:23:34;25.15;;;13.80;;
26756;SDS011;23848;49.798;10.228;2024-01-11T10:26:03;30.00;;;15.95;;
26756;SDS011;23848;49.798;10.228;2024-01-11T10:28:35;30.92;;;15.98;;
26756;SDS011;23848;49.798;10.228;2024-01-11T10:31:06;27.75;;;15.45;;
26756;SDS011;23848;49.798;10.228;2024-01-11T10:33:37;27.35;;;14.65;;
26756;SDS011;23848;49.798;10.228;2024-01-11T10:36:06;27.45;;;14.43;;
26756;SDS011;23848;49.798;10.228;2024-01-11T10:38:40;36.28;;;15.38;;
26756;SDS011;23848;49.798;10.228;2024-01-11T10:41:09;31.00;;;15.77;;
26756;SDS011;23848;49.798;10.228;2024-01-11T10:43:55;31.10;;;15.20;;
26756;SDS011;23848;49.798;10.228;2024-01-11T10:46:32;28.92;;;14.60;;
26756;SDS011;23848;49.798;10.228;2024-01-11T10:49:04;31.90;;;15.68;;
26756;SDS011;23848;49.798;10.228;2024-01-11T10:51:37;30.60;;;15.00;;
26756;SDS011;23848;49.798;10.228;2024-01-11T10:54:10;27.20;;;14.57;;
26756;SDS011;23848;49.798;10.228;2024-01-11T10:56:44;30.15;;;14.25;;
26756;SDS011;23848;49.798;10.228;2024-01-11T10:59:20;31.25;;;13.95;;
26756;SDS011;23848;49.798;10.228;2024-01-11T11:01:51;28.20;;;14.05;;
26756;SDS011;23848;49.798;10.228;2024-01-11T11:04:28;24.98;;;14.40;;
26756;SDS011;23848;49.798;10.228;2024-01-11T11:07:01;21.33;;;11.07;;
26756;SDS011;23848;49.798;10.228;2024-01-11T11:09:34;25.58;;;13.27;;
26756;SDS011;23848;49.798;10.228;2024-01-11T11:12:03;30.52;;;13.93;;
26756;SDS011;23848;49.798;10.228;2024-01-11T11:14:33;29.60;;;14.80;;
26756;SDS011;23848;49.798;10.228;2024-01-11T11:17:03;24.85;;;14.02;;
26756;SDS011;23848;49.798;10.228;2024-01-11T11:19:35;26.77;;;14.20;;
26756;SDS011;23848;49.798;10.228;2024-01-11T11:22:04;25.52;;;12.80;;
26756;SDS011;23848;49.798;10.228;2024-01-11T11:24:33;27.30;;;13.80;;
26756;SDS011;23848;49.798;10.228;2024-01-11T11:27:06;23.73;;;12.88;;
26756;SDS011;23848;49.798;10.228;2024-01-11T11:29:38;26.27;;;14.57;;
26756;SDS011;23848;49.798;10.228;2024-01-11T11:32:09;24.75;;;13.57;;
26756;SDS011;23848;49.798;10.228;2024-01-11T11:34:41;25.00;;;11.80;;
26756;SDS011;23848;49.798;10.228;2024-01-11T11:37:11;24.67;;;13.23;;
26756;SDS011;23848;49.798;10.228;2024-01-11T11:39:41;25.33;;;13.52;;
26756;SDS011;23848;49.798;10.228;2024-01-11T11:42:10;39.70;;;17.00;;
26756;SDS011;23848;49.798;10.228;2024-01-11T11:44:48;31.58;;;15.82;;
26756;SDS011;23848;49.798;10.228;2024-01-11T11:47:18;23.25;;;13.05;;
26756;SDS011;23848;49.798;10.228;2024-01-11T11:50:00;26.35;;;13.43;;
26756;SDS011;23848;49.798;10.228;2024-01-11T11:52:32;17.50;;;9.20;;
26756;SDS011;23848;49.798;10.228;2024-01-11T11:55:02;28.02;;;14.60;;
26756;SDS011;23848;49.798;10.228;2024-01-11T11:57:31;22.58;;;12.68;;
26756;SDS011;23848;49.798;10.228;2024-01-11T12:00:01;28.85;;;13.50;;
26756;SDS011;23848;49.798;10.228;2024-01-11T12:02:32;19.67;;;10.80;;
26756;SDS011;23848;49.798;10.228;2024-01-11T12:05:03;21.75;;;12.93;;
26756;SDS011;23848;49.798;10.228;2024-01-11T12:07:32;22.30;;;12.10;;
26756;SDS011;23848;49.798;10.228;2024-01-11T12:10:01;24.15;;;13.38;;
26756;SDS011;23848;49.798;10.228;2024-01-11T12:12:30;23.88;;;12.93;;
26756;SDS011;23848;49.798;10.228;2024-01-11T12:15:00;21.38;;;11.93;;
26756;SDS011;23848;49.798;10.228;2024-01-11T12:17:32;21.05;;;12.77;;
26756;SDS011;23848;49.798;10.228;2024-01-11T12:20:01;21.17;;;12.43;;
26756;SDS011;23848;49.798;10.228;2024-01-11T12:22:34;24.73;;;13.50;;
26756;SDS011;23848;49.798;10.228;2024-01-11T12:25:05;22.88;;;12.07;;
26756;SDS011;23848;49.798;10.228;2024-01-11T12:27:37;19.42;;;11.10;;
26756;SDS011;23848;49.798;10.228;2024-01-11T12:30:13;20.75;;;12.05;;
26756;SDS011;23848;49.798;10.228;2024-01-11T12:32:45;18.00;;;10.48;;
26756;SDS011;23848;49.798;10.228;2024-01-11T12:35:18;21.75;;;10.90;;
26756;SDS011;23848;49.798;10.228;2024-01-11T12:37:52;20.83;;;11.50;;
26756;SDS011;23848;49.798;10.228;2024-01-11T12:40:31;18.83;;;10.73;;
26756;SDS011;23848;49.798;10.228;2024-01-11T12:43:11;17.30;;;9.75;;
26756;SDS011;23848;49.798;10.228;2024-01-11T12:45:43;20.08;;;10.95;;
26756;SDS011;23848;49.798;10.228;2024-01-11T12:48:16;21.77;;;11.57;;
26756;SDS011;23848;49.798;10.228;2024-01-11T12:50:46;22.67;;;12.18;;
26756;SDS011;23848;49.798;10.228;2024-01-11T12:53:31;18.90;;;12.40;;
26756;SDS011;23848;49.798;10.228;2024-01-11T12:56:05;17.40;;;10.50;;
26756;SDS011;23848;49.798;10.228;2024-01-11T12:58:40;23.63;;;12.10;;
26756;SDS011;23848;49.798;10.228;2024-01-11T13:01:14;24.05;;;12.13;;
26756;SDS011;23848;49.798;10.228;2024-01-11T13:03:46;23.80;;;12.60;;
26756;SDS011;23848;49.798;10.228;2024-01-11T13:06:17;21.10;;;11.63;;
26756;SDS011;23848;49.798;10.228;2024-01-11T13:08:48;22.23;;;11.32;;
26756;SDS011;23848;49.798;10.228;2024-01-11T13:11:17;21.17;;;12.52;;
26756;SDS011;23848;49.798;10.228;2024-01-11T13:13:47;20.27;;;10.95;;
26756;SDS011;23848;49.798;10.228;2024-01-11T13:16:18;18.60;;;11.80;;
26756;SDS011;23848;49.798;10.228;2024-01-11T13:18:48;18.30;;;11.02;;
26756;SDS011;23848;49.798;10.228;2024-01-11T13:21:16;21.65;;;12.35;;
26756;SDS011;23848;49.798;10.228;2024-01-11T13:23:45;23.50;;;11.38;;
26756;SDS011;23848;49.798;10.228;2024-01-11T13:26:16;20.55;;;11.13;;
26756;SDS011;23848;49.798;10.228;2024-01-11T13:28:50;19.67;;;10.32;;
26756;SDS011;23848;49.798;10.228;2024-01-11T13:31:19;22.20;;;12.38;;
26756;SDS011;23848;49.798;10.228;2024-01-11T13:33:50;17.33;;;10.20;;
26756;SDS011;23848;49.798;10.228;2024-01-11T13:36:21;18.45;;;10.30;;
26756;SDS011;23848;49.798;10.228;2024-01-11T13:38:52;19.17;;;10.52;;
26756;SDS011;23848;49.798;10.228;2024-01-11T13:41:20;20.95;;;11.35;;
26756;SDS011;23848;49.798;10.228;2024-01-11T13:43:52;18.35;;;10.45;;
26756;SDS011;23848;49.798;10.228;2024-01-11T13:46:20;21.73;;;10.38;;
26756;SDS011;23848;49.798;10.228;2024-01-11T13:48:51;18.67;;;10.55;;
26756;SDS011;23848;49.798;10.228;2024-01-11T13:51:22;19.85;;;10.20;;
26756;SDS011;23848;49.798;10.228;2024-01-11T13:53:51;20.52;;;11.05;;
26756;SDS011;23848;49.798;10.228;2024-01-11T13:56:19;19.35;;;10.43;;
26756;SDS011;23848;49.798;10.228;2024-01-11T13:58:49;17.90;;;9.68;;
26756;SDS011;23848;49.798;10.228;2024-01-11T14:01:18;16.75;;;9.85;;
26756;SDS011;23848;49.798;10.228;2024-01-11T14:03:46;16.42;;;9.98;;
26756;SDS011;23848;49.798;10.228;2024-01-11T14:06:17;17.35;;;10.70;;
26756;SDS011;23848;49.798;10.228;2024-01-11T14:08:50;20.48;;;11.02;;
26756;SDS011;23848;49.798;10.228;2024-01-11T14:11:23;19.38;;;9.65;;
26756;SDS011;23848;49.798;10.228;2024-01-11T14:13:51;19.50;;;11.02;;
26756;SDS011;23848;49.798;10.228;2024-01-11T14:16:22;21.05;;;11.00;;
26756;SDS011;23848;49.798;10.228;2024-01-11T14:18:53;19.17;;;10.80;;
26756;SDS011;23848;49.798;10.228;2024-01-11T14:21:23;17.77;;;9.15;;
26756;SDS011;23848;49.798;10.228;2024-01-11T14:23:52;16.25;;;10.02;;
26756;SDS011;23848;49.798;10.228;2024-01-11T14:26:20;17.33;;;9.80;;
26756;SDS011;23848;49.798;10.228;2024-01-11T14:28:52;15.20;;;9.07;;